Time;durP1;ratioP1;P1;durP2;ratioP2;P2;SDS_P1;SDS_P2;PMS_P1;PMS_P2;Temp;Humidity;BMP_temperature;BMP_pressure;BME280_temperature;BME280_humidity;BME280_pressure;Samples;Min_cycle;Max_cycle;Signal;HPM_P1;HPM_P2
2023/06/10 00:01:12;;;;;;;8.32;5.97;;;;;;;23.02;100.00;101300.94;5264704;28;20120;-77
2023/06/10 00:03:43;;;;;;;8.50;6.10;;;;;;;23.02;100.00;101302.84;5271632;28;20028;-77
2023/06/10 00:06:14;;;;;;;6.63;5.78;;;;;;;23.00;100.00;101302.19;5264697;28;20029;-77
2023/06/10 00:08:47;;;;;;;7.25;6.57;;;;;;;22.99;100.00;101305.97;5273204;28;20028;-77
2023/06/10 00:11:18;;;;;;;6.68;5.60;;;;;;;22.96;100.00;101303.69;5270573;28;20035;-77
2023/06/10 00:13:50;;;;;;;8.48;6.05;;;;;;;22.93;100.00;101301.38;5265945;28;20056;-77
2023/06/10 00:16:21;;;;;;;8.13;6.25;;;;;;;22.85;100.00;101306.00;5271505;28;20032;-78
2023/06/10 00:18:55;;;;;;;6.60;6.00;;;;;;;22.83;100.00;101307.28;5268397;28;20023;-77
2023/06/10 00:21:30;;;;;;;7.00;6.25;;;;;;;22.78;100.00;101313.34;5271887;28;20531;-77
2023/06/10 00:24:05;;;;;;;6.82;6.22;;;;;;;22.80;100.00;101313.13;5276115;28;20032;-77
2023/06/10 00:26:36;;;;;;;7.50;5.82;;;;;;;22.71;100.00;101308.97;5281703;28;20114;-77
2023/06/10 00:29:08;;;;;;;7.47;6.47;;;;;;;22.66;100.00;101313.13;5272087;28;20036;-76
2023/06/10 00:31:39;;;;;;;9.00;6.07;;;;;;;22.60;100.00;101308.56;5266329;28;20129;-77
2023/06/10 00:34:11;;;;;;;7.03;6.28;;;;;;;22.55;100.00;101313.78;5275033;28;20028;-77
2023/06/10 00:36:43;;;;;;;8.98;6.55;;;;;;;22.46;100.00;101313.16;5275236;28;20031;-77
2023/06/10 00:39:14;;;;;;;8.35;6.03;;;;;;;22.44;100.00;101317.13;5269673;28;20425;-77
2023/06/10 00:41:45;;;;;;;9.10;6.55;;;;;;;22.45;100.00;101313.38;5276040;28;20050;-77
2023/06/10 00:44:17;;;;;;;8.23;5.85;;;;;;;22.33;100.00;101317.78;5278669;28;20028;-79
2023/06/10 00:46:51;;;;;;;8.85;5.93;;;;;;;22.31;100.00;101312.53;5267372;28;20033;-79
2023/06/10 00:49:22;;;;;;;7.57;6.30;;;;;;;22.27;100.00;101316.72;5279394;28;20033;-79
2023/06/10 00:51:53;;;;;;;7.60;6.40;;;;;;;22.16;100.00;101318.16;5274691;28;20031;-79
2023/06/10 00:54:25;;;;;;;7.47;6.68;;;;;;;22.20;100.00;101316.69;5272943;28;20031;-78
2023/06/10 00:56:57;;;;;;;8.65;6.38;;;;;;;22.02;100.00;101313.72;5274714;28;20035;-78
2023/06/10 00:59:30;;;;;;;7.93;6.20;;;;;;;22.02;100.00;101311.00;5271925;28;20025;-78
2023/06/10 01:02:04;;;;;;;7.47;6.65;;;;;;;21.98;100.00;101309.78;5268171;28;20032;-79
2023/06/10 01:04:36;;;;;;;7.05;6.30;;;;;;;21.93;100.00;101310.38;5266613;28;20044;-78
2023/06/10 01:07:28;;;;;;;9.13;6.68;;;;;;;21.93;100.00;101309.56;5266647;28;20148;-79
2023/06/10 01:10:04;;;;;;;9.15;6.78;;;;;;;21.82;100.00;101311.81;5275806;28;20094;-78
2023/06/10 01:12:50;;;;;;;10.00;7.07;;;;;;;21.86;100.00;101313.09;5273879;28;20115;-78
2023/06/10 01:15:22;;;;;;;7.47;6.75;;;;;;;21.74;100.00;101308.47;5270566;28;20034;-79
2023/06/10 01:18:01;;;;;;;8.10;6.05;;;;;;;21.76;100.00;101312.66;5285531;28;20027;-79
2023/06/10 01:20:33;;;;;;;7.80;7.00;;;;;;;21.66;100.00;101314.94;5277828;28;20054;-79
2023/06/10 01:23:04;;;;;;;7.40;6.70;;;;;;;21.60;100.00;101313.00;5283636;28;20040;-81
2023/06/10 01:25:45;;;;;;;9.40;6.90;;;;;;;21.62;100.00;101319.09;5279427;28;20052;-80
2023/06/10 01:28:27;;;;;;;8.40;7.47;;;;;;;21.49;100.00;101315.31;5284705;28;20110;-80
2023/06/10 01:31:17;;;;;;;8.68;6.88;;;;;;;21.48;100.00;101318.22;5285631;28;20028;-80
2023/06/10 01:33:52;;;;;;;8.80;7.38;;;;;;;21.39;100.00;101322.94;5278782;28;20094;-80
2023/06/10 01:36:24;;;;;;;8.60;6.90;;;;;;;21.38;100.00;101318.53;5280632;28;20787;-79
2023/06/10 01:38:57;;;;;;;8.25;6.82;;;;;;;21.21;100.00;101322.66;5277104;28;20036;-80
2023/06/10 01:41:28;;;;;;;8.88;6.88;;;;;;;21.24;100.00;101320.38;5276295;28;20047;-80
2023/06/10 01:44:00;;;;;;;10.80;7.00;;;;;;;21.20;100.00;101316.38;5271029;28;20028;-79
2023/06/10 01:46:31;;;;;;;9.15;6.90;;;;;;;21.12;100.00;101322.81;5270165;28;20032;-79
2023/06/10 01:49:02;;;;;;;8.07;6.85;;;;;;;21.05;100.00;101313.78;5272729;28;20030;-79
2023/06/10 01:51:34;;;;;;;9.10;6.97;;;;;;;20.99;100.00;101321.91;5279417;28;20028;-79
2023/06/10 01:54:06;;;;;;;7.75;6.95;;;;;;;20.85;100.00;101327.25;5276748;28;20028;-79
2023/06/10 01:56:37;;;;;;;9.95;7.28;;;;;;;20.79;100.00;101314.47;5271139;28;20044;-79
2023/06/10 01:59:09;;;;;;;7.93;7.15;;;;;;;20.77;100.00;101321.97;5270895;28;20132;-79
2023/06/10 02:01:40;;;;;;;7.57;6.82;;;;;;;20.65;100.00;101313.56;5270177;28;20549;-78
2023/06/10 02:04:11;;;;;;;7.55;6.80;;;;;;;20.63;100.00;101322.91;5274347;28;20030;-79
2023/06/10 02:06:42;;;;;;;9.43;7.18;;;;;;;20.64;100.00;101325.44;5273762;28;20153;-79
2023/06/10 02:09:14;;;;;;;7.63;6.85;;;;;;;20.59;100.00;101328.69;5269789;28;20429;-79
2023/06/10 02:11:45;;;;;;;8.13;7.32;;;;;;;20.52;100.00;101335.94;5277962;28;20097;-79
2023/06/10 02:14:16;;;;;;;8.30;7.05;;;;;;;20.47;100.00;101341.09;5271905;28;20028;-77
2023/06/10 02:16:48;;;;;;;8.85;6.97;;;;;;;20.32;100.00;101321.38;5275608;28;20024;-78
2023/06/10 02:19:21;;;;;;;9.63;7.38;;;;;;;20.34;100.00;101328.28;5269748;28;20032;-79
2023/06/10 02:21:52;;;;;;;8.02;7.18;;;;;;;20.31;100.00;101333.25;5276899;28;20623;-79
2023/06/10 02:24:23;;;;;;;9.65;7.32;;;;;;;20.26;100.00;101327.59;5281460;28;20031;-78
2023/06/10 02:26:55;;;;;;;9.82;7.50;;;;;;;20.25;100.00;101332.19;5269930;28;20447;-79
2023/06/10 02:29:26;;;;;;;9.70;7.28;;;;;;;20.18;100.00;101332.13;5264197;28;20075;-80
2023/06/10 02:31:58;;;;;;;8.93;7.47;;;;;;;20.13;100.00;101336.44;5270371;28;20020;-79
2023/06/10 02:34:29;;;;;;;9.23;7.35;;;;;;;20.11;100.00;101339.34;5273798;28;20043;-79
2023/06/10 02:37:00;;;;;;;9.75;8.10;;;;;;;20.06;100.00;101343.66;5268530;28;20556;-69
2023/06/10 02:39:32;;;;;;;9.55;8.10;;;;;;;20.09;100.00;101341.41;5272491;28;20028;-68
2023/06/10 02:42:03;;;;;;;9.90;7.03;;;;;;;20.05;100.00;101334.69;5266579;28;20029;-68
2023/06/10 02:44:35;;;;;;;8.85;7.88;;;;;;;19.99;100.00;101341.72;5279155;28;20119;-68
2023/06/10 02:47:06;;;;;;;10.02;8.13;;;;;;;19.94;100.00;101335.22;5275907;28;20088;-68
2023/06/10 02:49:37;;;;;;;8.73;7.82;;;;;;;19.93;100.00;101344.34;5267869;28;20024;-68
2023/06/10 02:52:11;;;;;;;8.85;7.57;;;;;;;19.89;100.00;101349.31;5272070;28;20052;-68
2023/06/10 02:54:42;;;;;;;9.27;8.18;;;;;;;19.82;100.00;101340.28;5281175;28;20089;-69
2023/06/10 02:57:14;;;;;;;9.68;8.23;;;;;;;19.84;100.00;101340.91;5263159;28;20684;-68
2023/06/10 02:59:45;;;;;;;9.55;7.88;;;;;;;19.73;100.00;101338.69;5276091;28;20036;-69
2023/06/10 03:02:16;;;;;;;10.48;8.23;;;;;;;19.72;100.00;101337.00;5271631;28;20050;-70
2023/06/10 03:04:50;;;;;;;10.95;8.52;;;;;;;19.73;100.00;101344.94;5270871;28;20390;-66
2023/06/10 03:07:21;;;;;;;9.65;8.63;;;;;;;19.72;100.00;101343.28;5275855;28;20028;-66
2023/06/10 03:09:52;;;;;;;9.57;7.85;;;;;;;19.69;100.00;101345.50;5273672;28;20115;-66
2023/06/10 03:12:24;;;;;;;9.30;8.40;;;;;;;19.64;100.00;101344.22;5277146;28;20040;-67
2023/06/10 03:14:55;;;;;;;11.68;8.13;;;;;;;19.60;100.00;101344.78;5264840;28;20024;-66
2023/06/10 03:17:27;;;;;;;9.40;8.50;;;;;;;19.56;100.00;101346.19;5266574;28;20044;-67
2023/06/10 03:19:58;;;;;;;10.38;8.70;;;;;;;19.56;100.00;101348.91;5271255;28;20024;-67
2023/06/10 03:22:30;;;;;;;10.65;8.30;;;;;;;19.53;100.00;101346.56;5273861;28;20861;-67
2023/06/10 03:25:01;;;;;;;9.13;8.10;;;;;;;19.51;100.00;101340.50;5267310;28;20449;-67
2023/06/10 03:27:33;;;;;;;12.35;8.88;;;;;;;19.42;100.00;101346.03;5276748;28;20034;-67
2023/06/10 03:30:04;;;;;;;9.45;8.45;;;;;;;19.39;100.00;101346.41;5262249;28;20043;-67
2023/06/10 03:32:36;;;;;;;10.30;9.30;;;;;;;19.42;100.00;101342.47;5272935;28;20035;-67
2023/06/10 03:35:08;;;;;;;9.77;8.75;;;;;;;19.42;100.00;101350.59;5269195;28;20618;-67
2023/06/10 03:37:39;;;;;;;12.10;9.57;;;;;;;19.38;100.00;101354.72;5281735;28;20133;-68
2023/06/10 03:40:11;;;;;;;9.80;8.70;;;;;;;19.39;100.00;101351.81;5275200;28;20066;-68
2023/06/10 03:42:43;;;;;;;11.85;10.63;;;;;;;19.23;100.00;101355.56;5283182;28;20624;-69
2023/06/10 03:45:15;;;;;;;11.82;10.63;;;;;;;19.25;100.00;101364.34;5273481;28;20489;-69
2023/06/10 03:47:47;;;;;;;12.13;9.85;;;;;;;19.20;100.00;101361.34;5278852;28;20036;-69
2023/06/10 03:50:19;;;;;;;10.93;9.82;;;;;;;19.23;100.00;101365.53;5277006;28;20028;-69
2023/06/10 03:52:50;;;;;;;10.75;8.80;;;;;;;19.22;100.00;101363.88;5274565;28;20473;-69
2023/06/10 03:55:23;;;;;;;12.10;9.95;;;;;;;19.16;100.00;101359.19;5278262;28;20043;-69
2023/06/10 03:57:54;;;;;;;13.73;10.40;;;;;;;19.17;100.00;101367.13;5272923;28;20036;-68
2023/06/10 04:00:25;;;;;;;13.43;10.23;;;;;;;19.23;100.00;101362.81;5269696;28;20029;-70
2023/06/10 04:02:57;;;;;;;11.57;10.45;;;;;;;19.07;100.00;101363.84;5271738;28;20024;-69
2023/06/10 04:05:30;;;;;;;14.68;9.88;;;;;;;19.17;100.00;101361.72;5268705;28;20361;-68
2023/06/10 04:08:01;;;;;;;11.85;10.75;;;;;;;19.12;100.00;101368.72;5265128;28;20114;-69
2023/06/10 04:10:33;;;;;;;12.55;10.70;;;;;;;19.15;100.00;101368.34;5270881;28;20024;-69
2023/06/10 04:13:04;;;;;;;12.50;10.48;;;;;;;19.20;100.00;101365.91;5265521;28;20101;-69
2023/06/10 04:15:36;;;;;;;12.00;10.80;;;;;;;19.17;100.00;101369.00;5268356;28;20445;-69
2023/06/10 04:18:08;;;;;;;14.93;11.50;;;;;;;19.15;100.00;101371.03;5270411;28;20132;-68
2023/06/10 04:20:39;;;;;;;14.82;12.60;;;;;;;19.15;100.00;101368.34;5270946;28;20497;-68
2023/06/10 04:23:10;;;;;;;16.05;11.15;;;;;;;19.21;100.00;101367.59;5268756;28;20553;-68
2023/06/10 04:25:42;;;;;;;12.85;10.77;;;;;;;19.20;100.00;101377.56;5267437;28;20433;-68
2023/06/10 04:28:15;;;;;;;13.75;12.23;;;;;;;19.23;100.00;101374.50;5266192;28;20435;-68
2023/06/10 04:30:47;;;;;;;13.07;11.70;;;;;;;19.19;100.00;101386.69;5266428;28;20037;-68
2023/06/10 04:33:18;;;;;;;15.23;11.90;;;;;;;19.21;100.00;101379.22;5268773;28;20032;-69
2023/06/10 04:35:50;;;;;;;12.27;11.02;;;;;;;19.23;100.00;101379.91;5268037;28;20033;-69
2023/06/10 04:38:21;;;;;;;12.45;11.30;;;;;;;19.26;100.00;101389.50;5269942;28;20410;-69
2023/06/10 04:40:53;;;;;;;12.75;11.50;;;;;;;19.30;100.00;101387.25;5276199;28;20085;-69
2023/06/10 04:43:24;;;;;;;13.13;11.82;;;;;;;19.34;100.00;101394.00;5272659;28;20059;-69
2023/06/10 04:45:55;;;;;;;12.60;11.40;;;;;;;19.35;100.00;101387.53;5275895;28;20032;-69
2023/06/10 04:48:27;;;;;;;13.00;11.38;;;;;;;19.40;100.00;101390.53;5272864;28;20515;-69
2023/06/10 04:50:58;;;;;;;12.75;11.38;;;;;;;19.45;100.00;101391.63;5271110;28;20497;-69
2023/06/10 04:53:30;;;;;;;14.25;12.23;;;;;;;19.41;100.00;101386.81;5280455;28;20024;-69
2023/06/10 04:56:02;;;;;;;17.13;12.13;;;;;;;19.52;100.00;101393.59;5276624;28;20608;-68
2023/06/10 04:58:33;;;;;;;11.93;10.82;;;;;;;19.52;100.00;101388.19;5276686;28;21700;-68
2023/06/10 05:01:04;;;;;;;14.57;12.00;;;;;;;19.52;100.00;101389.03;5269220;28;20028;-68
2023/06/10 05:03:36;;;;;;;15.57;12.98;;;;;;;19.57;100.00;101397.41;5272992;28;20031;-68
2023/06/10 05:06:07;;;;;;;13.98;12.40;;;;;;;19.55;100.00;101398.63;5269249;28;20020;-69
2023/06/10 05:08:38;;;;;;;13.35;12.02;;;;;;;19.59;100.00;101395.34;5270338;28;20055;-70
2023/06/10 05:11:09;;;;;;;13.77;11.25;;;;;;;19.62;100.00;101394.16;5271876;28;20030;-70
2023/06/10 05:13:42;;;;;;;11.00;9.88;;;;;;;19.75;100.00;101394.31;5267722;28;20395;-70
2023/06/10 05:16:14;;;;;;;13.02;10.88;;;;;;;19.77;100.00;101394.97;5268396;28;20020;-69
2023/06/10 05:18:46;;;;;;;11.95;10.68;;;;;;;19.85;100.00;101398.63;5268872;28;20073;-70
2023/06/10 05:21:17;;;;;;;11.82;10.57;;;;;;;19.88;100.00;101399.09;5270848;28;20073;-69
2023/06/10 05:23:48;;;;;;;13.90;10.30;;;;;;;19.96;100.00;101400.81;5267732;28;20032;-70
2023/06/10 05:26:20;;;;;;;12.73;10.82;;;;;;;19.98;100.00;101394.16;5269237;28;20095;-70
2023/06/10 05:28:51;;;;;;;12.30;10.55;;;;;;;20.06;100.00;101395.13;5268048;28;20024;-70
2023/06/10 05:31:22;;;;;;;12.55;10.52;;;;;;;20.06;100.00;101398.66;5272435;28;20030;-70
2023/06/10 05:33:53;;;;;;;14.18;10.05;;;;;;;20.17;100.00;101403.53;5276215;28;20039;-69
2023/06/10 05:36:27;;;;;;;11.63;9.35;;;;;;;20.18;100.00;101397.13;5270599;28;20385;-70
2023/06/10 05:38:59;;;;;;;14.60;11.18;;;;;;;20.20;100.00;101392.34;5268622;28;20819;-70
2023/06/10 05:41:30;;;;;;;12.65;9.65;;;;;;;20.26;100.00;101398.84;5266220;28;20036;-70
2023/06/10 05:44:02;;;;;;;10.77;9.73;;;;;;;20.36;100.00;101398.53;5272796;28;20050;-70
2023/06/10 05:46:33;;;;;;;11.27;10.07;;;;;;;20.43;100.00;101394.03;5269850;28;20124;-69
2023/06/10 05:49:05;;;;;;;10.98;9.40;;;;;;;20.53;100.00;101393.66;5267649;28;20040;-70
2023/06/10 05:51:37;;;;;;;13.60;10.27;;;;;;;20.54;100.00;101395.34;5269453;28;20032;-70
2023/06/10 05:54:08;;;;;;;10.50;9.50;;;;;;;20.63;100.00;101396.91;5268784;28;20028;-71
2023/06/10 05:56:39;;;;;;;13.30;9.55;;;;;;;20.69;100.00;101398.88;5276163;28;20483;-70
2023/06/10 05:59:10;;;;;;;12.20;9.68;;;;;;;20.78;100.00;101400.38;5269312;28;20085;-70
2023/06/10 06:01:42;;;;;;;11.98;9.75;;;;;;;20.85;100.00;101403.16;5276554;28;20410;-81
2023/06/10 06:04:13;;;;;;;13.65;9.55;;;;;;;20.93;100.00;101400.31;5282120;28;20032;-80
2023/06/10 06:06:44;;;;;;;14.98;9.65;;;;;;;20.96;100.00;101408.03;5288323;28;20032;-79
2023/06/10 06:09:16;;;;;;;11.50;9.38;;;;;;;21.13;100.00;101408.56;5282113;28;20670;-80
2023/06/10 06:11:47;;;;;;;12.07;9.75;;;;;;;21.31;100.00;101407.22;5284266;28;20030;-79
2023/06/10 06:14:18;;;;;;;12.43;9.57;;;;;;;21.49;100.00;101396.72;5276487;28;20077;-79
2023/06/10 06:16:49;;;;;;;11.18;9.60;;;;;;;21.66;100.00;101404.50;5281228;28;20036;-79
2023/06/10 06:19:21;;;;;;;11.75;9.27;;;;;;;21.82;100.00;101406.03;5273433;28;20020;-79
2023/06/10 06:21:52;;;;;;;12.15;9.23;;;;;;;22.03;100.00;101399.63;5278015;28;20028;-79
2023/06/10 06:24:23;;;;;;;10.32;8.52;;;;;;;22.16;100.00;101396.09;5275369;28;20458;-79
2023/06/10 06:26:55;;;;;;;10.75;9.23;;;;;;;22.38;100.00;101403.06;5273407;28;20023;-79
2023/06/10 06:29:26;;;;;;;10.35;8.98;;;;;;;22.63;100.00;101410.59;5271686;28;20101;-79
2023/06/10 06:31:57;;;;;;;11.68;9.10;;;;;;;22.88;100.00;101402.66;5273546;28;20429;-79
2023/06/10 06:34:28;;;;;;;11.77;8.38;;;;;;;23.03;100.00;101408.69;5271857;28;20049;-79
2023/06/10 06:37:00;;;;;;;12.50;8.82;;;;;;;23.31;100.00;101410.34;5279795;28;20032;-79
2023/06/10 06:39:31;;;;;;;14.27;8.95;;;;;;;23.48;100.00;101408.00;5275837;28;20063;-77
2023/06/10 06:42:03;;;;;;;11.70;8.27;;;;;;;23.78;100.00;101413.72;5278437;28;20040;-79
2023/06/10 06:44:34;;;;;;;10.27;7.82;;;;;;;23.87;100.00;101419.81;5277649;28;20372;-79
2023/06/10 06:47:06;;;;;;;11.60;8.95;;;;;;;24.16;100.00;101420.31;5276409;28;20068;-80
2023/06/10 06:49:37;;;;;;;12.90;9.07;;;;;;;24.30;100.00;101421.88;5278230;28;20673;-80
2023/06/10 06:52:09;;;;;;;12.05;7.70;;;;;;;24.48;100.00;101425.75;5270428;28;20346;-79
2023/06/10 06:54:40;;;;;;;11.00;8.77;;;;;;;24.69;100.00;101424.56;5281060;28;20390;-82
2023/06/10 06:57:11;;;;;;;13.48;8.65;;;;;;;24.84;100.00;101422.34;5275732;28;20337;-82
2023/06/10 06:59:42;;;;;;;13.37;8.10;;;;;;;25.10;100.00;101421.25;5273754;28;20033;-82
2023/06/10 07:02:14;;;;;;;11.05;7.50;;;;;;;25.15;100.00;101426.03;5280859;28;20297;-82
2023/06/10 07:04:46;;;;;;;13.57;7.90;;;;;;;25.52;100.00;101419.78;5284291;28;20042;-82
2023/06/10 07:07:18;;;;;;;10.63;8.23;;;;;;;25.59;100.00;101423.25;5283776;28;20457;-82
2023/06/10 07:09:49;;;;;;;9.63;8.25;;;;;;;25.71;100.00;101432.38;5276444;28;20031;-83
2023/06/10 07:12:23;;;;;;;10.40;7.22;;;;;;;25.93;100.00;101430.00;5284930;28;20024;-82
2023/06/10 07:14:55;;;;;;;12.73;7.80;;;;;;;26.12;100.00;101430.81;5288494;28;20044;-82
2023/06/10 07:17:26;;;;;;;10.48;7.00;;;;;;;26.45;100.00;101434.13;5278545;28;20025;-82
2023/06/10 07:19:59;;;;;;;9.55;7.65;;;;;;;26.47;100.00;101434.69;5279724;28;20542;-82
2023/06/10 07:22:30;;;;;;;8.18;7.35;;;;;;;26.65;100.00;101437.41;5291606;28;20047;-82
2023/06/10 07:25:02;;;;;;;9.05;7.25;;;;;;;26.76;100.00;101442.03;5284968;28;20031;-82
2023/06/10 07:27:33;;;;;;;8.63;7.00;;;;;;;26.92;100.00;101437.78;5286915;28;20031;-81
2023/06/10 07:30:07;;;;;;;9.70;6.85;;;;;;;27.10;100.00;101433.25;5279884;28;20036;-82
2023/06/10 07:32:39;;;;;;;52.67;47.00;;;;;;;27.19;100.00;101441.94;5281890;28;20501;-77
2023/06/10 07:35:11;;;;;;;16.33;13.35;;;;;;;27.41;100.00;101439.47;5280700;28;20028;-80
2023/06/10 07:37:42;;;;;;;16.52;14.63;;;;;;;27.50;100.00;101440.75;5284044;28;20104;-81
2023/06/10 07:40:14;;;;;;;11.55;7.30;;;;;;;27.93;100.00;101431.25;5269365;28;20029;-82
2023/06/10 07:42:45;;;;;;;10.52;7.20;;;;;;;28.05;100.00;101444.88;5273023;28;20060;-81
2023/06/10 07:45:16;;;;;;;8.20;6.70;;;;;;;28.03;100.00;101445.16;5273208;28;20034;-80
2023/06/10 07:47:47;;;;;;;13.03;7.03;;;;;;;28.35;100.00;101439.16;5273941;28;20298;-81
2023/06/10 07:50:19;;;;;;;9.02;6.53;;;;;;;28.46;100.00;101440.16;5275198;28;20294;-78
2023/06/10 07:52:50;;;;;;;9.50;6.40;;;;;;;28.53;100.00;101440.00;5270999;28;20945;-81
2023/06/10 07:55:22;;;;;;;11.38;6.82;;;;;;;28.82;100.00;101449.00;5270118;28;20795;-83
2023/06/10 07:57:54;;;;;;;13.80;6.93;;;;;;;28.74;100.00;101453.00;5272038;28;20498;-81
2023/06/10 08:00:25;;;;;;;9.00;5.32;;;;;;;29.16;100.00;101441.59;5273523;28;20025;-80
2023/06/10 08:02:56;;;;;;;8.03;6.40;;;;;;;29.26;100.00;101437.34;5267161;28;20085;-88
2023/06/10 08:05:28;;;;;;;10.52;5.93;;;;;;;29.24;100.00;101443.06;5271450;28;20309;-85
2023/06/10 08:08:00;;;;;;;8.98;6.18;;;;;;;29.59;100.00;101436.41;5269413;28;20496;-84
2023/06/10 08:10:31;;;;;;;11.98;6.40;;;;;;;29.56;100.00;101437.75;5269215;28;20036;-86
2023/06/10 08:13:02;;;;;;;10.02;6.10;;;;;;;29.96;99.21;101439.34;5276325;28;20032;-84
2023/06/10 08:15:34;;;;;;;8.85;5.90;;;;;;;30.00;98.68;101447.91;5274016;28;20743;-85
2023/06/10 08:18:05;;;;;;;9.10;5.65;;;;;;;30.34;97.87;101445.81;5274319;28;20025;-87
2023/06/10 08:20:37;;;;;;;9.60;6.30;;;;;;;30.37;95.85;101440.91;5282901;28;20097;-84
2023/06/10 08:23:10;;;;;;;11.05;5.80;;;;;;;30.72;95.00;101438.44;5267605;28;20331;-87
2023/06/10 08:25:41;;;;;;;7.70;6.10;;;;;;;30.52;92.89;101430.00;5266137;28;20543;-84
2023/06/10 08:28:12;;;;;;;7.45;5.35;;;;;;;30.80;91.93;101433.53;5272636;28;20127;-84
2023/06/10 08:30:44;;;;;;;18.20;16.42;;;;;;;30.94;90.43;101436.69;5275639;28;20490;-85
2023/06/10 08:33:19;;;;;;;16.42;11.60;;;;;;;31.08;89.60;101435.97;5277570;28;20054;-89
2023/06/10 08:35:50;;;;;;;19.75;16.55;;;;;;;31.21;89.70;101436.59;5274268;28;20119;-92
2023/06/10 08:38:22;;;;;;;10.75;8.10;;;;;;;31.48;89.39;101426.22;5295832;28;20120;-89
2023/06/10 08:40:59;;;;;;;6.25;5.60;;;;;;;31.78;87.37;101443.19;5300095;28;20020;-90
2023/06/10 08:44:03;;;;;;;10.48;6.05;;;;;;;31.96;87.54;101439.97;5296702;28;20020;-86
2023/06/10 08:46:36;;;;;;;8.70;5.53;;;;;;;31.84;84.21;101439.38;5299798;28;20039;-90
2023/06/10 08:49:07;;;;;;;9.93;4.95;;;;;;;32.03;84.11;101442.44;5276978;28;20028;-86
2023/06/10 08:51:41;;;;;;;7.97;5.47;;;;;;;32.13;82.30;101436.97;5274858;28;20032;-85
2023/06/10 08:54:20;;;;;;;10.48;5.40;;;;;;;32.29;83.19;101440.56;5271794;28;20028;-89
2023/06/10 08:56:55;;;;;;;12.55;5.80;;;;;;;32.34;80.22;101440.59;5267094;28;20118;-84
2023/06/10 08:59:26;;;;;;;10.95;5.38;;;;;;;32.58;80.46;101437.28;5273613;28;20031;-81
2023/06/10 09:01:58;;;;;;;9.88;5.22;;;;;;;32.77;77.39;101437.59;5268901;28;20052;-85
2023/06/10 09:04:30;;;;;;;10.43;5.15;;;;;;;32.96;75.61;101430.38;5271261;28;20463;-85
2023/06/10 09:07:02;;;;;;;15.60;12.32;;;;;;;33.12;75.21;101433.13;5273309;28;20030;-87
2023/06/10 09:09:35;;;;;;;15.57;14.10;;;;;;;33.16;74.92;101431.47;5274366;28;20037;-85
2023/06/10 09:12:06;;;;;;;8.30;5.53;;;;;;;33.34;72.50;101439.13;5266665;28;20027;-83
2023/06/10 09:14:38;;;;;;;10.82;5.10;;;;;;;33.76;72.57;101433.47;5273026;28;20036;-84
2023/06/10 09:17:10;;;;;;;8.13;5.30;;;;;;;33.83;69.99;101426.50;5270116;28;20070;-84
2023/06/10 09:19:43;;;;;;;9.55;5.22;;;;;;;33.87;70.65;101424.84;5272852;28;20106;-85
2023/06/10 09:22:15;;;;;;;7.68;5.38;;;;;;;33.81;68.16;101428.72;5274657;28;20622;-85
2023/06/10 09:24:46;;;;;;;8.63;5.32;;;;;;;34.07;69.36;101440.47;5268260;28;20483;-87
2023/06/10 09:27:17;;;;;;;6.63;4.68;;;;;;;34.42;68.55;101429.47;5271737;28;20032;-85
2023/06/10 09:29:57;;;;;;;6.07;4.30;;;;;;;34.56;65.96;101440.72;5273719;28;20024;-85
2023/06/10 09:32:30;;;;;;;6.10;4.50;;;;;;;34.56;62.80;101427.69;5273336;28;20635;-85
2023/06/10 09:35:09;;;;;;;7.43;5.28;;;;;;;34.96;64.79;101427.59;5269672;28;20063;-85
2023/06/10 09:37:40;;;;;;;8.43;4.93;;;;;;;34.90;62.18;101428.78;5269117;28;20028;-85
2023/06/10 09:40:12;;;;;;;5.50;4.20;;;;;;;34.95;61.48;101429.53;5267165;28;20727;-86
2023/06/10 09:42:43;;;;;;;8.60;7.68;;;;;;;35.24;60.66;101427.88;5266544;28;20044;-85
2023/06/10 09:45:15;;;;;;;11.63;10.48;;;;;;;35.54;58.76;101429.47;5271740;28;20140;-85
2023/06/10 09:47:47;;;;;;;8.75;6.75;;;;;;;35.32;58.50;101432.78;5271016;28;20036;-85
2023/06/10 09:50:20;;;;;;;9.82;5.32;;;;;;;35.59;58.20;101427.44;5270090;28;20508;-86
2023/06/10 09:52:51;;;;;;;7.07;5.38;;;;;;;35.58;57.27;101427.72;5273647;28;20027;-84
2023/06/10 09:55:23;;;;;;;7.38;4.50;;;;;;;35.84;54.21;101419.09;5270034;28;20024;-84
2023/06/10 09:57:54;;;;;;;7.10;4.07;;;;;;;36.05;53.88;101417.66;5268841;28;20254;-84
2023/06/10 10:00:26;;;;;;;8.63;4.53;;;;;;;36.15;52.94;101413.88;5270107;28;20064;-83
2023/06/10 10:02:57;;;;;;;8.00;4.57;;;;;;;36.47;52.67;101421.44;5269015;28;20140;-83
2023/06/10 10:05:29;;;;;;;11.73;4.93;;;;;;;36.38;54.19;101411.31;5269926;28;20036;-83
2023/06/10 10:08:01;;;;;;;6.20;4.40;;;;;;;36.38;52.77;101414.94;5258898;28;20294;-84
2023/06/10 10:10:32;;;;;;;7.15;4.28;;;;;;;36.68;53.00;101410.81;5271058;28;20093;-83
2023/06/10 10:13:03;;;;;;;5.75;3.83;;;;;;;37.02;51.62;101408.81;5269929;28;20032;-83
2023/06/10 10:15:38;;;;;;;11.20;4.18;;;;;;;37.00;50.65;101408.28;5271423;28;20508;-84
2023/06/10 10:18:14;;;;;;;7.20;4.38;;;;;;;37.19;50.67;101405.44;5267674;28;20146;-83
2023/06/10 10:20:49;;;;;;;4.28;3.88;;;;;;;37.17;47.55;101402.97;5265471;28;20147;-84
2023/06/10 10:23:28;;;;;;;5.82;4.70;;;;;;;37.23;47.62;101407.28;5274437;28;20451;-84
2023/06/10 10:26:03;;;;;;;5.68;3.95;;;;;;;37.58;48.08;101410.44;5265765;28;20027;-84
2023/06/10 10:28:41;;;;;;;4.53;4.13;;;;;;;37.67;48.12;101407.75;5263863;28;20028;-85
2023/06/10 10:31:16;;;;;;;6.32;4.28;;;;;;;37.74;46.15;101399.81;5267905;28;20198;-85
2023/06/10 10:34:07;;;;;;;;;;;;;;;38.80;49.00;101402.22;5262247;28;20517;-84
2023/06/10 10:36:39;;;;;;;6.50;4.15;;;;;;;37.63;44.46;101399.19;5268353;28;19916;-83
2023/06/10 10:39:12;;;;;;;6.63;4.70;;;;;;;37.84;44.20;101405.13;5267402;28;20421;-87
2023/06/10 10:41:44;;;;;;;6.60;4.40;;;;;;;38.06;42.53;101403.50;5268439;28;20036;-83
2023/06/10 10:44:16;;;;;;;5.93;4.10;;;;;;;37.77;42.12;101392.81;5270744;28;20028;-82
2023/06/10 10:46:51;;;;;;;4.20;3.80;;;;;;;37.76;43.06;101402.28;5270151;28;20046;-85
2023/06/10 10:49:22;;;;;;;;;;;;;;;38.89;45.17;101391.94;5268576;28;20497;-84
2023/06/10 10:51:58;;;;;;;7.22;5.30;;;;;;;38.26;41.97;101390.25;5263025;28;20107;-84
2023/06/10 10:54:37;;;;;;;7.00;4.20;;;;;;;38.29;42.85;101396.03;5272218;28;20040;-84
2023/06/10 10:57:08;;;;;;;6.05;4.25;;;;;;;38.37;40.10;101395.22;5265265;28;20107;-81
2023/06/10 10:59:59;;;;;;;6.77;4.00;;;;;;;38.62;42.17;101397.69;5270301;28;20462;-81
2023/06/10 11:02:43;;;;;;;8.43;3.92;;;;;;;38.41;40.71;101392.63;5260207;28;20043;-81
2023/06/10 11:05:17;;;;;;;6.05;4.40;;;;;;;38.40;40.34;101397.38;5270060;28;20846;-83
2023/06/10 11:07:55;;;;;;;7.00;4.28;;;;;;;38.64;40.13;101387.06;5273566;28;20177;-81
2023/06/10 11:10:34;;;;;;;7.13;4.45;;;;;;;38.52;39.74;101387.59;5276991;28;20048;-83
2023/06/10 11:13:08;;;;;;;8.32;4.70;;;;;;;38.60;38.31;101381.31;5266415;28;20021;-83
2023/06/10 11:15:47;;;;;;;6.47;4.07;;;;;;;38.83;39.01;101392.41;5266700;28;20661;-82
2023/06/10 11:18:39;;;;;;;5.95;4.68;;;;;;;38.91;38.87;101384.06;5263866;28;20039;-82
2023/06/10 11:21:10;;;;;;;9.60;4.22;;;;;;;38.89;38.37;101375.22;5271065;28;20546;-83
2023/06/10 11:23:42;;;;;;;5.40;3.80;;;;;;;38.85;38.63;101376.16;5276108;28;20035;-82
2023/06/10 11:26:40;;;;;;;5.20;3.90;;;;;;;39.02;37.83;101359.50;5280942;28;20293;-83
2023/06/10 11:29:15;;;;;;;7.30;4.38;;;;;;;38.82;37.91;101369.28;5277160;28;20041;-82
2023/06/10 11:31:50;;;;;;;;;;;;;;;39.87;38.13;101364.75;5276970;28;20503;-82
2023/06/10 11:34:24;;;;;;;11.07;4.15;;;;;;;38.50;35.98;101368.44;5277362;28;19927;-82
2023/06/10 11:36:56;;;;;;;7.80;4.33;;;;;;;38.49;38.39;101344.50;5280374;28;20039;-83
2023/06/10 11:39:29;;;;;;;6.28;4.15;;;;;;;38.96;37.95;101366.38;5271880;28;20361;-83